Aeroporto :
LOGIN :

Iscrizione | Disclaimer

   EN    FR    IT 

 










Sommario :    VFR   VFR Marginale   IFR   IFR Intensivo   IFR Molto Intensivo
Visibilità : 
Base nubi : 
>= 8 km
>= 3000ft
5 / 8 km
1000 / 3000 ft
1500m / 5 km
500 / 1000 ft
800 / 1500m
200 / 500 ft
< 800m
< 200 ft
Simboli :   Temporali  Nebbia  Neve Forte  Precipitazioni Forti  Vento > 20 kt
SIGMETs :   Varie  Temporali  Ghiacco  Turbolenza  Onda orograficha  Ceneri Vulcaniche







- Altitudine del aeroporto : 289 ft
- Codice IATA : ZAD


LDZD - Zadar

ULTIMO METAR :
  • 240730Z 14016KT 110V170 9999 FEW018 19/14 Q1016 NOSIG

METARs OBSOLETI :
  • 240700Z 14016KT 110V170 9999 SCT018 18/14 Q1016 NOSIG
  • 240630Z 14014KT 100V170 9999 SCT010 17/13 Q1016 NOSIG
  • 240600Z 14013KT 110V170 9999 FEW007 17/14 Q1015 NOSIG
  • 240530Z 13010KT 100V160 9999 FEW007 15/13 Q1015 BECMG 13012KT
  • 240500Z 13010KT 100V160 CAVOK 15/13 Q1015 BECMG 13012KT

TAF TAF LDZD
Valido dal 24 a 06 ore il 25 a 06 ore UTC


240525Z 2406/2506 13010KT 9999 SCT017 TX21/2412Z TN14/2504Z
BECMG 2406/2408 15016KT
PROB40
TEMPO 2409/2413 15018G28KT
BECMG 2416/2418 12008KT
Nessun NOTAM noto per questo aeroporto.



MetMap, La meteo Aeronautica in un colpo d'occhio ! - Copyright ORBIFLY Dicembre 2007 - Disclaimer

ORBIFLY MET'MAP TEAM :

Programmazione e sviluppo : Alexandra Zaïnal
Concezione e sviluppo : Baudouin d'Aumeries
Co-Programmazione e sviluppo : Marc-Olivier Méhu
Supporto tecnico e logistico : Manuel Goepfert
Aiuto per la traduzione : Arnaldo La Scala

Contatto : metmap@orbifly.com




FONTI E CREDITI :

   NOAA